createdAt,value
2018-09-27T00:04:21.466Z,13.50
2018-09-27T00:09:06.201Z,13.50
2018-09-27T00:13:50.094Z,13.60
2018-09-27T00:18:34.003Z,13.70
2018-09-27T00:23:17.751Z,13.70
2018-09-27T00:28:01.629Z,13.80
2018-09-27T00:32:45.390Z,13.80
2018-09-27T00:37:29.247Z,13.80
2018-09-27T00:42:13.677Z,13.80
2018-09-27T00:46:57.459Z,13.80
2018-09-27T00:51:41.256Z,13.90
2018-09-27T00:56:25.037Z,13.90
2018-09-27T01:01:08.943Z,14.00
2018-09-27T01:05:52.666Z,14.00
2018-09-27T01:10:36.482Z,14.00
2018-09-27T01:15:20.297Z,14.00
2018-09-27T01:20:03.996Z,14.00
2018-09-27T01:24:47.817Z,14.00
2018-09-27T01:29:32.432Z,13.90
2018-09-27T01:34:16.443Z,13.90
2018-09-27T01:39:00.965Z,13.90
2018-09-27T01:43:45.376Z,13.90
2018-09-27T01:48:29.143Z,13.90
2018-09-27T01:53:12.845Z,13.90
2018-09-27T01:57:56.692Z,13.90
2018-09-27T02:02:40.372Z,13.90
2018-09-27T02:07:24.143Z,13.90
2018-09-27T02:12:07.940Z,13.80
2018-09-27T02:16:51.634Z,13.70
2018-09-27T02:21:35.347Z,13.70
2018-09-27T02:26:19.262Z,13.70
2018-09-27T02:31:03.042Z,13.70
2018-09-27T02:35:47.081Z,13.80
2018-09-27T02:40:30.897Z,13.70
2018-09-27T02:45:15.188Z,13.60
2018-09-27T02:49:58.945Z,13.70
2018-09-27T02:54:42.921Z,13.80
2018-09-27T02:59:27.046Z,13.90
2018-09-27T03:04:10.817Z,13.70
2018-09-27T03:08:54.664Z,13.60
2018-09-27T03:13:38.571Z,13.50
2018-09-27T03:18:22.770Z,13.50
2018-09-27T03:23:06.592Z,13.50
2018-09-27T03:27:50.356Z,13.50
2018-09-27T03:32:34.214Z,13.50
2018-09-27T03:37:18.100Z,13.50
2018-09-27T03:42:01.857Z,13.50
2018-09-27T03:46:45.657Z,13.50
2018-09-27T03:51:29.409Z,13.40
2018-09-27T03:56:13.204Z,13.40
2018-09-27T04:00:57.000Z,13.50
2018-09-27T04:05:41.918Z,13.50
2018-09-27T04:10:25.638Z,13.40
2018-09-27T04:15:09.506Z,13.40
2018-09-27T04:19:53.381Z,13.30
2018-09-27T04:24:37.814Z,13.30
2018-09-27T04:29:21.645Z,13.30
2018-09-27T04:34:07.098Z,13.30
2018-09-27T04:38:51.242Z,13.30
2018-09-27T04:43:35.320Z,13.20
2018-09-27T04:48:19.150Z,13.20
2018-09-27T04:53:04.216Z,13.30
2018-09-27T04:57:48.011Z,13.20
2018-09-27T05:02:31.790Z,13.20
2018-09-27T05:07:15.630Z,13.20
2018-09-27T05:12:00.669Z,13.20
2018-09-27T05:16:45.482Z,13.20
2018-09-27T05:21:29.411Z,13.20
2018-09-27T05:26:13.101Z,13.20
2018-09-27T05:30:56.823Z,13.20
2018-09-27T05:35:40.700Z,13.20
2018-09-27T05:40:24.467Z,13.20
2018-09-27T05:45:08.308Z,13.20
2018-09-27T05:49:52.318Z,13.30
2018-09-27T05:54:37.478Z,13.30
2018-09-27T05:59:21.364Z,13.40
2018-09-27T06:04:05.221Z,13.50
2018-09-27T06:08:49.097Z,13.50
2018-09-27T06:13:32.824Z,13.50
2018-09-27T06:18:16.558Z,13.60
2018-09-27T06:23:00.358Z,13.70
2018-09-27T06:27:44.880Z,13.80
2018-09-27T06:32:28.728Z,13.90
2018-09-27T06:37:12.608Z,14.00
2018-09-27T06:41:56.536Z,14.00
2018-09-27T06:46:40.564Z,13.90
2018-09-27T06:51:24.290Z,14.00
2018-09-27T06:56:08.401Z,14.00
2018-09-27T07:00:52.232Z,14.00
2018-09-27T07:05:36.143Z,14.10
2018-09-27T07:10:20.092Z,14.20
2018-09-27T07:15:03.954Z,14.30
2018-09-27T07:19:47.768Z,14.40
2018-09-27T07:24:31.599Z,14.40
2018-09-27T07:29:15.345Z,14.50
2018-09-27T07:33:59.322Z,14.50
2018-09-27T07:38:43.235Z,14.50
2018-09-27T07:43:26.954Z,14.80
2018-09-27T07:48:10.847Z,15.00
2018-09-27T07:52:54.682Z,15.00
2018-09-27T07:57:38.441Z,15.10
2018-09-27T08:02:22.479Z,15.20
2018-09-27T08:07:06.598Z,15.50
2018-09-27T08:11:50.321Z,15.80
2018-09-27T08:16:34.001Z,16.10
2018-09-27T08:21:17.971Z,16.30
2018-09-27T08:26:01.686Z,16.30
2018-09-27T08:30:45.621Z,16.50
2018-09-27T08:35:29.622Z,16.70
2018-09-27T08:40:13.416Z,16.70
2018-09-27T08:44:57.457Z,16.90
2018-09-27T08:49:41.501Z,17.10
2018-09-27T08:54:25.272Z,17.20
2018-09-27T08:59:09.054Z,17.40
2018-09-27T09:03:52.837Z,17.40
2018-09-27T09:08:37.050Z,17.10
2018-09-27T09:13:20.952Z,17.30
2018-09-27T09:18:04.681Z,17.30
2018-09-27T09:22:48.302Z,17.20
2018-09-27T09:27:32.309Z,17.30
2018-09-27T09:32:16.056Z,17.70
2018-09-27T09:37:00.071Z,17.80
2018-09-27T09:41:43.810Z,18.00
2018-09-27T09:46:27.733Z,18.20
2018-09-27T09:51:11.624Z,18.50
2018-09-27T09:55:55.358Z,18.70
2018-09-27T10:00:39.144Z,18.90
2018-09-27T10:05:23.100Z,19.20
2018-09-27T10:10:06.874Z,19.50
2018-09-27T10:14:50.692Z,19.40
2018-09-27T10:19:34.436Z,19.40
2018-09-27T10:24:18.148Z,19.50
2018-09-27T10:29:01.963Z,19.40
2018-09-27T10:33:45.676Z,19.30
2018-09-27T10:38:29.558Z,19.70
2018-09-27T10:43:13.416Z,20.10
2018-09-27T10:47:57.416Z,20.50
2018-09-27T10:52:41.190Z,20.80
2018-09-27T10:57:24.964Z,20.50
2018-09-27T11:02:08.736Z,20.50
2018-09-27T11:06:52.441Z,20.80
2018-09-27T11:11:36.485Z,21.00
2018-09-27T11:16:20.249Z,21.20
2018-09-27T11:21:03.978Z,21.50
2018-09-27T11:25:47.799Z,21.90
2018-09-27T11:30:33.671Z,22.00
2018-09-27T11:35:17.547Z,22.10
2018-09-27T11:40:01.667Z,22.40
2018-09-27T11:44:45.421Z,22.60
2018-09-27T11:49:29.476Z,22.80
2018-09-27T11:54:18.016Z,23.20
2018-09-27T11:59:01.907Z,23.30
2018-09-27T12:03:46.043Z,23.20
2018-09-27T12:08:29.781Z,23.00
2018-09-27T12:13:13.653Z,22.50
2018-09-27T12:17:57.643Z,22.60
2018-09-27T12:22:41.359Z,22.70
2018-09-27T12:27:25.113Z,23.10
2018-09-27T12:32:10.913Z,23.10
2018-09-27T12:36:55.796Z,23.20
2018-09-27T12:41:40.308Z,23.50
2018-09-27T12:46:27.031Z,23.60
2018-09-27T12:51:10.989Z,23.50
2018-09-27T12:55:56.260Z,23.20
2018-09-27T13:06:04.166Z,23.30
2018-09-27T13:10:51.541Z,23.30
2018-09-27T13:15:35.333Z,23.60
2018-09-27T13:20:19.319Z,24.00
2018-09-27T13:25:03.007Z,24.00
2018-09-27T13:29:46.822Z,24.00
2018-09-27T13:34:30.676Z,24.00
2018-09-27T13:39:14.801Z,23.80
2018-09-27T13:43:58.566Z,23.80
2018-09-27T13:48:42.329Z,23.80
2018-09-27T13:53:28.231Z,23.70
2018-09-27T13:58:15.872Z,23.80
2018-09-27T14:03:05.928Z,24.00
2018-09-27T14:08:09.773Z,24.20
2018-09-27T14:18:40.852Z,24.40
2018-09-27T14:23:26.088Z,24.20
2018-09-27T14:28:13.073Z,24.00
2018-09-27T14:33:11.802Z,24.20
2018-09-27T14:38:08.805Z,24.50
2018-09-27T14:42:58.151Z,24.30
2018-09-27T14:47:49.413Z,24.50
2018-09-27T14:52:36.077Z,24.20
2018-09-27T14:57:29.381Z,24.40
2018-09-27T15:02:13.221Z,24.10
2018-09-27T15:07:00.044Z,23.80
2018-09-27T15:11:46.412Z,23.90
2018-09-27T15:16:30.348Z,23.80
2018-09-27T15:21:14.381Z,23.70
2018-09-27T15:26:02.113Z,23.60
2018-09-27T15:30:48.277Z,23.70
2018-09-27T15:35:35.508Z,23.60
2018-09-27T15:40:20.797Z,23.40
2018-09-27T15:45:06.501Z,22.90
2018-09-27T15:49:50.548Z,22.70
2018-09-27T15:54:34.330Z,22.50
2018-09-27T15:59:18.042Z,22.30
2018-09-27T16:04:01.912Z,21.90
2018-09-27T16:08:54.115Z,21.50
2018-09-27T16:13:37.945Z,21.10
2018-09-27T16:18:21.754Z,20.50
2018-09-27T16:23:05.544Z,20.10
2018-09-27T16:27:49.436Z,19.50
2018-09-27T16:32:33.212Z,18.90
2018-09-27T16:37:16.932Z,18.50
2018-09-27T16:42:00.709Z,18.30
2018-09-27T16:46:45.098Z,18.10
2018-09-27T16:51:28.938Z,17.90
2018-09-27T16:56:13.146Z,17.70
2018-09-27T17:00:57.300Z,17.50
2018-09-27T17:05:41.335Z,17.40
2018-09-27T17:10:25.192Z,17.30
2018-09-27T17:15:09.077Z,17.00
2018-09-27T17:19:52.896Z,16.90
2018-09-27T17:24:37.197Z,16.90
2018-09-27T17:29:21.055Z,16.90
2018-09-27T17:34:05.086Z,16.80
2018-09-27T17:38:50.012Z,16.60
2018-09-27T17:43:34.055Z,16.50
2018-09-27T17:48:18.015Z,16.30
2018-09-27T17:53:03.077Z,16.10
2018-09-27T17:57:46.808Z,16.00
2018-09-27T18:02:30.577Z,15.90
2018-09-27T18:07:19.240Z,16.00
2018-09-27T18:12:02.995Z,16.20
2018-09-27T18:16:47.329Z,16.30
2018-09-27T18:21:31.143Z,16.20
2018-09-27T18:26:15.013Z,16.30
2018-09-27T18:30:59.074Z,16.40
2018-09-27T18:35:42.924Z,16.30
2018-09-27T18:40:26.896Z,16.30
2018-09-27T18:45:10.650Z,16.40
2018-09-27T18:49:55.251Z,16.30
2018-09-27T18:54:38.978Z,16.20
2018-09-27T18:59:23.849Z,16.10
2018-09-27T19:04:08.576Z,16.10
2018-09-27T19:08:52.383Z,16.00
2018-09-27T19:13:36.199Z,15.70
2018-09-27T19:18:20.038Z,15.70
2018-09-27T19:23:03.803Z,15.90
2018-09-27T19:27:47.532Z,16.00
2018-09-27T19:32:31.315Z,16.10
2018-09-27T19:37:15.247Z,16.00
2018-09-27T19:41:59.013Z,16.10
2018-09-27T19:46:42.826Z,16.00
2018-09-27T19:51:26.527Z,16.00
2018-09-27T19:56:10.599Z,15.90
2018-09-27T20:00:54.334Z,15.80
2018-09-27T20:05:38.112Z,15.80
2018-09-27T20:10:21.878Z,15.80
2018-09-27T20:15:05.613Z,15.80
2018-09-27T20:19:49.432Z,15.80
2018-09-27T20:24:33.168Z,15.50
2018-09-27T20:29:17.074Z,15.40
2018-09-27T20:34:00.852Z,15.30
2018-09-27T20:38:44.618Z,15.20
2018-09-27T20:43:28.316Z,15.10
2018-09-27T20:48:12.068Z,15.00
2018-09-27T20:52:55.757Z,14.90
2018-09-27T20:57:39.497Z,14.80
2018-09-27T21:02:23.261Z,14.80
2018-09-27T21:07:07.147Z,14.60
2018-09-27T21:11:50.948Z,14.40
2018-09-27T21:16:34.604Z,14.30
2018-09-27T21:21:18.328Z,14.30
2018-09-27T21:26:02.094Z,14.40
2018-09-27T21:30:45.907Z,14.50
2018-09-27T21:35:30.117Z,14.40
2018-09-27T21:40:13.838Z,14.30
2018-09-27T21:44:57.588Z,14.30
2018-09-27T21:49:41.239Z,14.40
2018-09-27T21:54:24.931Z,14.60
2018-09-27T21:59:08.793Z,14.80
2018-09-27T22:03:52.542Z,14.80
2018-09-27T22:08:36.620Z,14.80
2018-09-27T22:13:20.952Z,15.10
2018-09-27T22:18:04.594Z,14.90
2018-09-27T22:22:48.354Z,14.50
2018-09-27T22:27:32.160Z,14.10
2018-09-27T22:32:16.001Z,13.80
2018-09-27T22:36:59.793Z,13.60
2018-09-27T22:41:43.574Z,13.40
2018-09-27T22:46:27.340Z,13.20
2018-09-27T22:51:11.092Z,13.10
2018-09-27T22:55:55.053Z,13.00
2018-09-27T23:00:38.816Z,13.10
2018-09-27T23:05:22.696Z,13.60
2018-09-27T23:10:06.442Z,13.60
2018-09-27T23:14:50.113Z,13.50
2018-09-27T23:19:33.864Z,13.30
2018-09-27T23:24:17.708Z,13.70
2018-09-27T23:29:01.426Z,14.10
2018-09-27T23:33:45.187Z,14.40
2018-09-27T23:38:29.023Z,14.30
2018-09-27T23:43:12.907Z,14.10
2018-09-27T23:47:56.684Z,14.20
2018-09-27T23:52:40.546Z,14.40
2018-09-27T23:57:24.299Z,14.30
